sensor_id;sensor_type;location;lat;lon;timestamp;temperature;humidity
19033;DHT22;9649;51.042;13.804;2023-07-16T00:02:43;24.40;1.00
19033;DHT22;9649;51.042;13.804;2023-07-16T00:07:46;24.20;1.00
19033;DHT22;9649;51.042;13.804;2023-07-16T00:12:49;23.90;99.90
19033;DHT22;9649;51.042;13.804;2023-07-16T00:17:53;23.90;1.00
19033;DHT22;9649;51.042;13.804;2023-07-16T00:22:57;23.90;99.90
19033;DHT22;9649;51.042;13.804;2023-07-16T00:28:00;24.00;1.00
19033;DHT22;9649;51.042;13.804;2023-07-16T00:33:04;24.40;1.00
19033;DHT22;9649;51.042;13.804;2023-07-16T00:38:07;24.80;99.90
19033;DHT22;9649;51.042;13.804;2023-07-16T00:43:10;24.80;99.90
19033;DHT22;9649;51.042;13.804;2023-07-16T00:48:14;24.90;99.90
19033;DHT22;9649;51.042;13.804;2023-07-16T00:53:17;24.90;99.90
19033;DHT22;9649;51.042;13.804;2023-07-16T00:58:20;24.80;1.00
19033;DHT22;9649;51.042;13.804;2023-07-16T01:03:24;24.80;1.00
19033;DHT22;9649;51.042;13.804;2023-07-16T01:08:31;24.80;1.00
19033;DHT22;9649;51.042;13.804;2023-07-16T01:13:35;24.60;29.30
19033;DHT22;9649;51.042;13.804;2023-07-16T01:18:39;24.40;99.90
19033;DHT22;9649;51.042;13.804;2023-07-16T01:23:56;24.40;1.00
19033;DHT22;9649;51.042;13.804;2023-07-16T01:29:16;24.40;99.90
19033;DHT22;9649;51.042;13.804;2023-07-16T01:34:22;24.30;1.00
19033;DHT22;9649;51.042;13.804;2023-07-16T01:39:27;24.30;1.00
19033;DHT22;9649;51.042;13.804;2023-07-16T01:44:31;24.30;1.00
19033;DHT22;9649;51.042;13.804;2023-07-16T01:49:34;24.30;1.00
19033;DHT22;9649;51.042;13.804;2023-07-16T01:54:37;24.40;99.90
19033;DHT22;9649;51.042;13.804;2023-07-16T01:59:41;24.40;99.90
19033;DHT22;9649;51.042;13.804;2023-07-16T02:04:44;24.60;99.90
19033;DHT22;9649;51.042;13.804;2023-07-16T02:09:47;24.30;1.00
19033;DHT22;9649;51.042;13.804;2023-07-16T02:14:51;24.30;17.60
19033;DHT22;9649;51.042;13.804;2023-07-16T02:19:54;23.90;61.60
19033;DHT22;9649;51.042;13.804;2023-07-16T02:24:57;23.80;99.90
19033;DHT22;9649;51.042;13.804;2023-07-16T02:30:01;23.50;77.60
19033;DHT22;9649;51.042;13.804;2023-07-16T02:35:04;23.30;1.00
19033;DHT22;9649;51.042;13.804;2023-07-16T02:40:08;23.10;1.00
19033;DHT22;9649;51.042;13.804;2023-07-16T02:45:12;23.00;99.90
19033;DHT22;9649;51.042;13.804;2023-07-16T02:50:15;23.00;1.00
19033;DHT22;9649;51.042;13.804;2023-07-16T02:55:18;22.80;1.00
19033;DHT22;9649;51.042;13.804;2023-07-16T03:00:22;22.70;1.00
19033;DHT22;9649;51.042;13.804;2023-07-16T03:05:25;22.10;99.90
19033;DHT22;9649;51.042;13.804;2023-07-16T03:10:28;21.50;99.90
19033;DHT22;9649;51.042;13.804;2023-07-16T03:15:32;21.10;99.90
19033;DHT22;9649;51.042;13.804;2023-07-16T03:20:35;20.70;99.90
19033;DHT22;9649;51.042;13.804;2023-07-16T03:25:38;20.40;99.90
19033;DHT22;9649;51.042;13.804;2023-07-16T03:30:45;20.40;99.90
19033;DHT22;9649;51.042;13.804;2023-07-16T03:35:48;20.30;99.90
19033;DHT22;9649;51.042;13.804;2023-07-16T03:40:51;20.30;99.90
19033;DHT22;9649;51.042;13.804;2023-07-16T03:45:56;20.30;99.90
19033;DHT22;9649;51.042;13.804;2023-07-16T03:50:58;20.20;99.90
19033;DHT22;9649;51.042;13.804;2023-07-16T03:56:01;20.30;99.90
19033;DHT22;9649;51.042;13.804;2023-07-16T04:01:06;20.30;99.90
19033;DHT22;9649;51.042;13.804;2023-07-16T04:06:10;20.40;99.90
19033;DHT22;9649;51.042;13.804;2023-07-16T04:11:13;20.30;99.90
19033;DHT22;9649;51.042;13.804;2023-07-16T04:16:17;20.30;99.90
19033;DHT22;9649;51.042;13.804;2023-07-16T04:21:20;20.50;99.90
19033;DHT22;9649;51.042;13.804;2023-07-16T04:26:23;20.30;99.90
19033;DHT22;9649;51.042;13.804;2023-07-16T04:31:27;20.40;99.90
19033;DHT22;9649;51.042;13.804;2023-07-16T04:36:30;20.50;99.90
19033;DHT22;9649;51.042;13.804;2023-07-16T04:41:33;20.60;99.90
19033;DHT22;9649;51.042;13.804;2023-07-16T04:46:38;20.50;99.90
19033;DHT22;9649;51.042;13.804;2023-07-16T04:51:40;20.50;99.90
19033;DHT22;9649;51.042;13.804;2023-07-16T04:56:43;20.60;99.90
19033;DHT22;9649;51.042;13.804;2023-07-16T05:01:47;20.70;99.90
19033;DHT22;9649;51.042;13.804;2023-07-16T05:06:51;20.80;99.90
19033;DHT22;9649;51.042;13.804;2023-07-16T05:11:54;21.20;99.90
19033;DHT22;9649;51.042;13.804;2023-07-16T05:16:58;21.40;99.90
19033;DHT22;9649;51.042;13.804;2023-07-16T05:22:01;21.40;99.90
19033;DHT22;9649;51.042;13.804;2023-07-16T05:27:05;21.30;99.90
19033;DHT22;9649;51.042;13.804;2023-07-16T05:32:09;21.30;99.90
19033;DHT22;9649;51.042;13.804;2023-07-16T05:37:12;21.20;99.90
19033;DHT22;9649;51.042;13.804;2023-07-16T05:42:15;21.30;99.90
19033;DHT22;9649;51.042;13.804;2023-07-16T05:47:19;21.50;99.90
19033;DHT22;9649;51.042;13.804;2023-07-16T05:52:22;21.70;99.90
19033;DHT22;9649;51.042;13.804;2023-07-16T05:57:25;21.90;99.90
19033;DHT22;9649;51.042;13.804;2023-07-16T06:02:29;22.30;99.90
19033;DHT22;9649;51.042;13.804;2023-07-16T06:07:32;22.70;99.90
19033;DHT22;9649;51.042;13.804;2023-07-16T06:12:35;23.00;1.00
19033;DHT22;9649;51.042;13.804;2023-07-16T06:17:39;23.40;1.00
19033;DHT22;9649;51.042;13.804;2023-07-16T06:22:42;24.10;1.00
19033;DHT22;9649;51.042;13.804;2023-07-16T06:27:45;24.70;1.00
19033;DHT22;9649;51.042;13.804;2023-07-16T06:32:49;24.50;1.00
19033;DHT22;9649;51.042;13.804;2023-07-16T06:37:52;24.70;99.90
19033;DHT22;9649;51.042;13.804;2023-07-16T06:42:55;25.10;1.00
19033;DHT22;9649;51.042;13.804;2023-07-16T06:48:00;25.20;1.00
19033;DHT22;9649;51.042;13.804;2023-07-16T06:53:27;26.00;1.00
19033;DHT22;9649;51.042;13.804;2023-07-16T06:58:32;26.50;1.00
19033;DHT22;9649;51.042;13.804;2023-07-16T07:03:39;25.70;1.00
19033;DHT22;9649;51.042;13.804;2023-07-16T07:08:42;25.50;1.00
19033;DHT22;9649;51.042;13.804;2023-07-16T07:13:45;25.20;1.00
19033;DHT22;9649;51.042;13.804;2023-07-16T07:18:49;25.20;1.00
19033;DHT22;9649;51.042;13.804;2023-07-16T07:23:52;25.00;1.00
19033;DHT22;9649;51.042;13.804;2023-07-16T07:28:55;25.30;99.90
19033;DHT22;9649;51.042;13.804;2023-07-16T07:33:59;25.20;1.00
19033;DHT22;9649;51.042;13.804;2023-07-16T07:39:02;25.40;1.00
19033;DHT22;9649;51.042;13.804;2023-07-16T07:44:05;25.60;25.60
19033;DHT22;9649;51.042;13.804;2023-07-16T07:49:09;26.00;1.00
19033;DHT22;9649;51.042;13.804;2023-07-16T07:54:12;26.80;96.90
19033;DHT22;9649;51.042;13.804;2023-07-16T07:59:15;26.90;1.00
19033;DHT22;9649;51.042;13.804;2023-07-16T08:04:19;27.20;1.00
19033;DHT22;9649;51.042;13.804;2023-07-16T08:09:22;27.80;1.00
19033;DHT22;9649;51.042;13.804;2023-07-16T08:14:25;27.70;1.00
19033;DHT22;9649;51.042;13.804;2023-07-16T08:19:29;27.40;1.00
19033;DHT22;9649;51.042;13.804;2023-07-16T08:24:32;27.50;1.00
19033;DHT22;9649;51.042;13.804;2023-07-16T08:29:36;27.50;1.00
19033;DHT22;9649;51.042;13.804;2023-07-16T08:34:40;27.70;1.00
19033;DHT22;9649;51.042;13.804;2023-07-16T08:39:43;28.10;1.00
19033;DHT22;9649;51.042;13.804;2023-07-16T08:44:46;28.20;1.00
19033;DHT22;9649;51.042;13.804;2023-07-16T08:49:54;28.10;1.00
19033;DHT22;9649;51.042;13.804;2023-07-16T08:54:58;28.60;1.00
19033;DHT22;9649;51.042;13.804;2023-07-16T09:00:01;29.10;1.00
19033;DHT22;9649;51.042;13.804;2023-07-16T09:05:07;30.00;1.00
19033;DHT22;9649;51.042;13.804;2023-07-16T09:10:29;30.60;99.90
19033;DHT22;9649;51.042;13.804;2023-07-16T09:15:32;30.60;99.90
19033;DHT22;9649;51.042;13.804;2023-07-16T09:20:39;31.60;99.90
19033;DHT22;9649;51.042;13.804;2023-07-16T09:25:43;32.30;99.90
19033;DHT22;9649;51.042;13.804;2023-07-16T09:30:52;30.40;99.90
19033;DHT22;9649;51.042;13.804;2023-07-16T09:35:57;31.30;99.90
19033;DHT22;9649;51.042;13.804;2023-07-16T09:41:02;32.40;99.90
19033;DHT22;9649;51.042;13.804;2023-07-16T09:46:05;33.20;99.90
19033;DHT22;9649;51.042;13.804;2023-07-16T09:51:11;34.30;99.90
19033;DHT22;9649;51.042;13.804;2023-07-16T09:56:15;38.50;99.90
19033;DHT22;9649;51.042;13.804;2023-07-16T10:01:19;40.70;99.90
19033;DHT22;9649;51.042;13.804;2023-07-16T10:06:23;38.70;99.90
19033;DHT22;9649;51.042;13.804;2023-07-16T10:11:26;36.60;99.90
19033;DHT22;9649;51.042;13.804;2023-07-16T10:16:36;37.40;99.90
19033;DHT22;9649;51.042;13.804;2023-07-16T10:21:40;35.00;99.90
19033;DHT22;9649;51.042;13.804;2023-07-16T10:26:43;32.40;99.90
19033;DHT22;9649;51.042;13.804;2023-07-16T10:31:46;32.00;99.90
19033;DHT22;9649;51.042;13.804;2023-07-16T10:36:51;32.10;99.90
19033;DHT22;9649;51.042;13.804;2023-07-16T10:41:54;32.00;99.90
19033;DHT22;9649;51.042;13.804;2023-07-16T10:46:57;34.40;99.90
19033;DHT22;9649;51.042;13.804;2023-07-16T10:52:02;37.90;99.90
19033;DHT22;9649;51.042;13.804;2023-07-16T10:57:05;37.80;99.90
19033;DHT22;9649;51.042;13.804;2023-07-16T11:02:11;39.80;97.70
19033;DHT22;9649;51.042;13.804;2023-07-16T11:07:16;42.00;68.00
19033;DHT22;9649;51.042;13.804;2023-07-16T11:12:21;39.40;51.50
19033;DHT22;9649;51.042;13.804;2023-07-16T11:17:24;36.40;55.80
19033;DHT22;9649;51.042;13.804;2023-07-16T11:22:28;35.00;68.60
19033;DHT22;9649;51.042;13.804;2023-07-16T11:27:32;33.90;83.80
19033;DHT22;9649;51.042;13.804;2023-07-16T11:32:36;34.40;93.80
19033;DHT22;9649;51.042;13.804;2023-07-16T11:37:41;33.80;98.50
19033;DHT22;9649;51.042;13.804;2023-07-16T11:42:44;33.60;99.90
19033;DHT22;9649;51.042;13.804;2023-07-16T11:47:48;33.20;99.90
19033;DHT22;9649;51.042;13.804;2023-07-16T11:52:59;34.50;99.90
19033;DHT22;9649;51.042;13.804;2023-07-16T11:58:02;38.30;99.90
19033;DHT22;9649;51.042;13.804;2023-07-16T12:03:05;43.30;75.50
19033;DHT22;9649;51.042;13.804;2023-07-16T12:08:09;46.70;27.60
19033;DHT22;9649;51.042;13.804;2023-07-16T12:13:16;46.80;1.00
19033;DHT22;9649;51.042;13.804;2023-07-16T12:18:18;46.10;1.00
19033;DHT22;9649;51.042;13.804;2023-07-16T12:23:23;45.40;1.00
19033;DHT22;9649;51.042;13.804;2023-07-16T12:28:26;43.50;1.00
19033;DHT22;9649;51.042;13.804;2023-07-16T12:33:28;45.40;1.00
19033;DHT22;9649;51.042;13.804;2023-07-16T12:38:33;44.80;1.00
19033;DHT22;9649;51.042;13.804;2023-07-16T12:43:35;43.10;1.00
19033;DHT22;9649;51.042;13.804;2023-07-16T12:48:39;44.00;1.00
19033;DHT22;9649;51.042;13.804;2023-07-16T12:53:58;44.30;1.00
19033;DHT22;9649;51.042;13.804;2023-07-16T12:59:02;44.30;1.00
19033;DHT22;9649;51.042;13.804;2023-07-16T13:04:05;43.50;1.00
19033;DHT22;9649;51.042;13.804;2023-07-16T13:09:09;39.70;1.00
19033;DHT22;9649;51.042;13.804;2023-07-16T13:14:12;40.20;1.00
19033;DHT22;9649;51.042;13.804;2023-07-16T13:19:15;41.90;1.00
19033;DHT22;9649;51.042;13.804;2023-07-16T13:24:19;43.40;1.00
19033;DHT22;9649;51.042;13.804;2023-07-16T13:29:22;42.50;1.00
19033;DHT22;9649;51.042;13.804;2023-07-16T13:34:25;42.80;1.00
19033;DHT22;9649;51.042;13.804;2023-07-16T13:39:29;43.90;1.00
19033;DHT22;9649;51.042;13.804;2023-07-16T13:44:32;44.50;1.00
19033;DHT22;9649;51.042;13.804;2023-07-16T13:49:34;43.80;1.00
19033;DHT22;9649;51.042;13.804;2023-07-16T13:54:39;42.50;1.00
19033;DHT22;9649;51.042;13.804;2023-07-16T13:59:42;40.40;1.00
19033;DHT22;9649;51.042;13.804;2023-07-16T14:04:46;40.80;1.00
19033;DHT22;9649;51.042;13.804;2023-07-16T14:09:50;41.50;1.00
19033;DHT22;9649;51.042;13.804;2023-07-16T14:14:53;40.50;1.00
19033;DHT22;9649;51.042;13.804;2023-07-16T14:19:55;39.10;1.00
19033;DHT22;9649;51.042;13.804;2023-07-16T14:25:00;40.70;1.00
19033;DHT22;9649;51.042;13.804;2023-07-16T14:30:03;39.30;1.00
19033;DHT22;9649;51.042;13.804;2023-07-16T14:35:08;40.00;1.00
19033;DHT22;9649;51.042;13.804;2023-07-16T14:40:23;37.90;1.00
19033;DHT22;9649;51.042;13.804;2023-07-16T14:45:27;35.40;1.00
19033;DHT22;9649;51.042;13.804;2023-07-16T14:50:30;34.60;1.50
19033;DHT22;9649;51.042;13.804;2023-07-16T14:55:35;36.10;8.40
19033;DHT22;9649;51.042;13.804;2023-07-16T15:00:38;40.20;1.00
19033;DHT22;9649;51.042;13.804;2023-07-16T15:05:41;39.80;1.00
19033;DHT22;9649;51.042;13.804;2023-07-16T15:10:45;39.80;1.00
19033;DHT22;9649;51.042;13.804;2023-07-16T15:15:48;39.90;1.00
19033;DHT22;9649;51.042;13.804;2023-07-16T15:20:56;40.60;1.00
19033;DHT22;9649;51.042;13.804;2023-07-16T15:26:03;39.60;1.00
19033;DHT22;9649;51.042;13.804;2023-07-16T15:31:07;38.60;1.00
19033;DHT22;9649;51.042;13.804;2023-07-16T15:36:10;36.00;1.00
19033;DHT22;9649;51.042;13.804;2023-07-16T15:41:15;33.50;1.00
19033;DHT22;9649;51.042;13.804;2023-07-16T15:46:19;33.10;2.40
19033;DHT22;9649;51.042;13.804;2023-07-16T15:51:22;32.90;7.50
19033;DHT22;9649;51.042;13.804;2023-07-16T15:56:26;33.00;12.00
19033;DHT22;9649;51.042;13.804;2023-07-16T16:01:29;32.70;16.70
19033;DHT22;9649;51.042;13.804;2023-07-16T16:06:32;33.70;18.90
19033;DHT22;9649;51.042;13.804;2023-07-16T16:11:39;35.70;17.30
19033;DHT22;9649;51.042;13.804;2023-07-16T16:16:42;36.80;9.40
19033;DHT22;9649;51.042;13.804;2023-07-16T16:22:06;35.90;4.80
19033;DHT22;9649;51.042;13.804;2023-07-16T16:27:10;34.80;7.60
19033;DHT22;9649;51.042;13.804;2023-07-16T16:32:15;34.30;10.60
19033;DHT22;9649;51.042;13.804;2023-07-16T16:37:18;34.20;11.70
19033;DHT22;9649;51.042;13.804;2023-07-16T16:42:22;33.70;15.30
19033;DHT22;9649;51.042;13.804;2023-07-16T16:47:25;34.30;17.60
19033;DHT22;9649;51.042;13.804;2023-07-16T16:52:29;35.30;16.90
19033;DHT22;9649;51.042;13.804;2023-07-16T16:57:34;35.20;14.00
19033;DHT22;9649;51.042;13.804;2023-07-16T17:02:37;35.20;12.10
19033;DHT22;9649;51.042;13.804;2023-07-16T17:07:40;35.20;11.30
19033;DHT22;9649;51.042;13.804;2023-07-16T17:12:44;34.70;12.70
19033;DHT22;9649;51.042;13.804;2023-07-16T17:17:48;34.90;12.90
19033;DHT22;9649;51.042;13.804;2023-07-16T17:22:50;35.00;12.30
19033;DHT22;9649;51.042;13.804;2023-07-16T17:27:55;34.40;31.60
19033;DHT22;9649;51.042;13.804;2023-07-16T17:32:57;34.20;15.30
19033;DHT22;9649;51.042;13.804;2023-07-16T17:38:00;33.80;16.90
19033;DHT22;9649;51.042;13.804;2023-07-16T17:43:05;32.90;18.20
19033;DHT22;9649;51.042;13.804;2023-07-16T17:48:07;32.90;23.00
19033;DHT22;9649;51.042;13.804;2023-07-16T17:53:10;33.10;24.10
19033;DHT22;9649;51.042;13.804;2023-07-16T17:58:14;32.20;26.60
19033;DHT22;9649;51.042;13.804;2023-07-16T18:03:18;32.00;29.40
19033;DHT22;9649;51.042;13.804;2023-07-16T18:08:21;31.30;36.30
19033;DHT22;9649;51.042;13.804;2023-07-16T18:13:25;30.40;43.50
19033;DHT22;9649;51.042;13.804;2023-07-16T18:18:28;29.70;54.10
19033;DHT22;9649;51.042;13.804;2023-07-16T18:23:31;29.70;63.30
19033;DHT22;9649;51.042;13.804;2023-07-16T18:28:36;29.30;72.10
19033;DHT22;9649;51.042;13.804;2023-07-16T18:33:38;29.20;84.00
19033;DHT22;9649;51.042;13.804;2023-07-16T18:38:42;29.20;89.10
19033;DHT22;9649;51.042;13.804;2023-07-16T18:43:46;29.10;91.80
19033;DHT22;9649;51.042;13.804;2023-07-16T18:48:52;28.80;94.80
19033;DHT22;9649;51.042;13.804;2023-07-16T18:53:55;28.60;98.90
19033;DHT22;9649;51.042;13.804;2023-07-16T18:59:05;28.30;99.90
19033;DHT22;9649;51.042;13.804;2023-07-16T19:04:08;27.70;99.90
19033;DHT22;9649;51.042;13.804;2023-07-16T19:09:13;27.20;99.90
19033;DHT22;9649;51.042;13.804;2023-07-16T19:14:20;26.90;99.90
19033;DHT22;9649;51.042;13.804;2023-07-16T19:19:23;26.70;99.90
19033;DHT22;9649;51.042;13.804;2023-07-16T19:24:25;26.50;99.90
19033;DHT22;9649;51.042;13.804;2023-07-16T19:29:30;26.10;99.90
19033;DHT22;9649;51.042;13.804;2023-07-16T19:34:33;26.00;99.90
19033;DHT22;9649;51.042;13.804;2023-07-16T19:39:36;25.80;99.90
19033;DHT22;9649;51.042;13.804;2023-07-16T19:44:40;25.80;99.90
19033;DHT22;9649;51.042;13.804;2023-07-16T19:49:44;25.40;99.90
19033;DHT22;9649;51.042;13.804;2023-07-16T19:54:47;25.40;99.90
19033;DHT22;9649;51.042;13.804;2023-07-16T19:59:51;25.10;99.90
19033;DHT22;9649;51.042;13.804;2023-07-16T20:04:54;24.90;99.90
19033;DHT22;9649;51.042;13.804;2023-07-16T20:09:56;24.60;99.90
19033;DHT22;9649;51.042;13.804;2023-07-16T20:15:03;24.30;99.90
19033;DHT22;9649;51.042;13.804;2023-07-16T20:20:08;24.10;1.00
19033;DHT22;9649;51.042;13.804;2023-07-16T20:25:13;24.00;1.00
19033;DHT22;9649;51.042;13.804;2023-07-16T20:30:17;24.20;1.00
19033;DHT22;9649;51.042;13.804;2023-07-16T20:35:20;24.10;1.00
19033;DHT22;9649;51.042;13.804;2023-07-16T20:40:23;24.20;1.00
19033;DHT22;9649;51.042;13.804;2023-07-16T20:45:28;24.00;1.00
19033;DHT22;9649;51.042;13.804;2023-07-16T20:50:31;23.80;1.00
19033;DHT22;9649;51.042;13.804;2023-07-16T20:55:35;23.70;1.00
19033;DHT22;9649;51.042;13.804;2023-07-16T21:00:39;23.60;1.00
19033;DHT22;9649;51.042;13.804;2023-07-16T21:05:43;23.40;1.00
19033;DHT22;9649;51.042;13.804;2023-07-16T21:10:45;23.60;1.00
19033;DHT22;9649;51.042;13.804;2023-07-16T21:15:50;23.60;1.00
19033;DHT22;9649;51.042;13.804;2023-07-16T21:20:53;23.30;1.00
19033;DHT22;9649;51.042;13.804;2023-07-16T21:25:55;23.30;1.00
19033;DHT22;9649;51.042;13.804;2023-07-16T21:31:00;23.30;1.00
19033;DHT22;9649;51.042;13.804;2023-07-16T21:36:02;23.20;1.00
19033;DHT22;9649;51.042;13.804;2023-07-16T21:41:06;23.10;25.40
19033;DHT22;9649;51.042;13.804;2023-07-16T21:46:10;23.00;99.90
19033;DHT22;9649;51.042;13.804;2023-07-16T21:51:13;23.00;50.80
19033;DHT22;9649;51.042;13.804;2023-07-16T21:56:17;23.00;99.90
19033;DHT22;9649;51.042;13.804;2023-07-16T22:01:21;23.00;99.90
19033;DHT22;9649;51.042;13.804;2023-07-16T22:06:24;22.80;99.90
19033;DHT22;9649;51.042;13.804;2023-07-16T22:11:26;22.60;99.90
19033;DHT22;9649;51.042;13.804;2023-07-16T22:16:31;22.40;1.00
19033;DHT22;9649;51.042;13.804;2023-07-16T22:21:34;22.10;1.00
19033;DHT22;9649;51.042;13.804;2023-07-16T22:26:37;22.00;1.00
19033;DHT22;9649;51.042;13.804;2023-07-16T22:31:42;22.20;1.00
19033;DHT22;9649;51.042;13.804;2023-07-16T22:36:45;22.10;1.00
19033;DHT22;9649;51.042;13.804;2023-07-16T22:41:47;21.90;99.90
19033;DHT22;9649;51.042;13.804;2023-07-16T22:46:52;21.80;99.90
19033;DHT22;9649;51.042;13.804;2023-07-16T22:51:54;21.80;99.90
19033;DHT22;9649;51.042;13.804;2023-07-16T22:56:58;21.60;1.00
19033;DHT22;9649;51.042;13.804;2023-07-16T23:02:02;21.60;1.00
19033;DHT22;9649;51.042;13.804;2023-07-16T23:07:05;21.40;1.00
19033;DHT22;9649;51.042;13.804;2023-07-16T23:12:08;21.10;1.00
19033;DHT22;9649;51.042;13.804;2023-07-16T23:17:12;21.00;1.00
19033;DHT22;9649;51.042;13.804;2023-07-16T23:22:15;20.80;1.00
19033;DHT22;9649;51.042;13.804;2023-07-16T23:27:18;20.70;99.90
19033;DHT22;9649;51.042;13.804;2023-07-16T23:32:23;20.60;39.40
19033;DHT22;9649;51.042;13.804;2023-07-16T23:37:28;20.60;99.90
19033;DHT22;9649;51.042;13.804;2023-07-16T23:42:31;20.60;45.40
19033;DHT22;9649;51.042;13.804;2023-07-16T23:47:35;20.50;99.90
19033;DHT22;9649;51.042;13.804;2023-07-16T23:52:38;20.40;99.90
19033;DHT22;9649;51.042;13.804;2023-07-16T23:57:41;20.50;99.90
